Time;durP1;ratioP1;P1;durP2;ratioP2;P2;SDS_P1;SDS_P2;PMS_P1;PMS_P2;Temp;Humidity;BMP_temperature;BMP_pressure;BME280_temperature;BME280_humidity;BME280_pressure;Samples;Min_cycle;Max_cycle;Signal;HPM_P1;HPM_P2
2024/02/28 00:00:55;;;;;;;24.35;15.18;;;;;;;;;;5050432;28;20139;-53
2024/02/28 00:03:24;;;;;;;20.85;14.30;;;;;;;;;;5050996;28;20072;-55
2024/02/28 00:05:50;;;;;;;21.00;14.07;;;;;;;;;;5049381;28;20118;-57
2024/02/28 00:08:19;;;;;;;25.05;16.35;;;;;;;;;;5050330;28;20500;-57
2024/02/28 00:10:46;;;;;;;21.67;14.40;;;;;;;;;;5049942;28;20122;-57
2024/02/28 00:13:15;;;;;;;23.52;14.75;;;;;;;;;;5049921;28;20045;-53
2024/02/28 00:15:42;;;;;;;23.42;15.18;;;;;;;;;;5050967;28;20445;-57
2024/02/28 00:18:10;;;;;;;25.02;14.77;;;;;;;;;;5051283;28;20079;-58
2024/02/28 00:20:38;;;;;;;21.65;14.18;;;;;;;;;;5056908;28;20053;-56
2024/02/28 00:23:05;;;;;;;23.90;14.75;;;;;;;;;;5049439;28;20120;-56
2024/02/28 00:25:31;;;;;;;25.20;15.27;;;;;;;;;;5061370;28;20139;-54
2024/02/28 00:27:58;;;;;;;27.85;16.38;;;;;;;;;;5055008;28;20394;-58
2024/02/28 00:30:25;;;;;;;23.65;15.45;;;;;;;;;;5053342;28;20083;-58
2024/02/28 00:32:51;;;;;;;23.48;14.98;;;;;;;;;;5053144;28;20221;-57
2024/02/28 00:35:18;;;;;;;24.35;15.82;;;;;;;;;;5058379;28;20084;-58
2024/02/28 00:37:46;;;;;;;23.88;14.20;;;;;;;;;;5051689;28;20048;-57
2024/02/28 00:40:13;;;;;;;24.17;14.43;;;;;;;;;;5051673;28;20432;-56
2024/02/28 00:42:40;;;;;;;24.27;14.93;;;;;;;;;;5051880;28;20126;-55
2024/02/28 00:45:10;;;;;;;22.77;14.35;;;;;;;;;;5063720;28;20075;-55
2024/02/28 00:47:37;;;;;;;23.43;14.37;;;;;;;;;;5052771;28;20058;-57
2024/02/28 00:50:05;;;;;;;22.17;13.90;;;;;;;;;;5051753;28;20361;-59
2024/02/28 00:52:32;;;;;;;21.33;13.77;;;;;;;;;;5051117;28;20558;-56
2024/02/28 00:55:00;;;;;;;22.00;14.77;;;;;;;;;;5045099;28;20045;-55
2024/02/28 00:57:27;;;;;;;23.38;14.25;;;;;;;;;;5051656;28;20123;-58
2024/02/28 00:59:54;;;;;;;25.67;14.55;;;;;;;;;;5051152;28;20084;-57
2024/02/28 01:02:21;;;;;;;25.13;15.10;;;;;;;;;;5051343;28;20068;-55
2024/02/28 01:04:48;;;;;;;22.02;14.23;;;;;;;;;;5050915;28;20041;-57
2024/02/28 01:07:14;;;;;;;22.88;14.10;;;;;;;;;;5051366;28;20527;-57
2024/02/28 01:09:41;;;;;;;24.85;15.25;;;;;;;;;;5051608;28;20488;-57
2024/02/28 01:12:09;;;;;;;21.80;13.90;;;;;;;;;;5045260;28;20045;-57
2024/02/28 01:14:36;;;;;;;26.73;15.18;;;;;;;;;;5049195;28;20076;-56
2024/02/28 01:17:03;;;;;;;22.58;14.02;;;;;;;;;;5051194;28;20053;-57
2024/02/28 01:19:30;;;;;;;23.42;14.95;;;;;;;;;;5051683;28;20052;-55
2024/02/28 01:21:56;;;;;;;25.73;15.45;;;;;;;;;;5051484;28;20156;-54
2024/02/28 01:24:23;;;;;;;22.60;13.68;;;;;;;;;;5051571;28;20053;-58
2024/02/28 01:26:50;;;;;;;25.80;14.45;;;;;;;;;;5051633;28;20526;-57
2024/02/28 01:29:18;;;;;;;23.27;14.38;;;;;;;;;;5051411;28;20071;-55
2024/02/28 01:31:45;;;;;;;25.13;15.48;;;;;;;;;;5051646;28;20081;-57
2024/02/28 01:34:12;;;;;;;25.35;15.10;;;;;;;;;;5047613;28;20456;-56
2024/02/28 01:36:38;;;;;;;22.20;14.32;;;;;;;;;;5049668;28;20092;-55
2024/02/28 01:39:05;;;;;;;26.80;16.08;;;;;;;;;;5050965;28;20103;-56
2024/02/28 01:41:32;;;;;;;23.67;14.73;;;;;;;;;;5051273;28;20080;-54
2024/02/28 01:43:58;;;;;;;23.48;14.90;;;;;;;;;;5051006;28;20080;-56
2024/02/28 01:46:28;;;;;;;23.10;14.38;;;;;;;;;;5050885;28;20041;-55
2024/02/28 01:48:56;;;;;;;27.67;16.02;;;;;;;;;;5051239;28;20466;-56
2024/02/28 01:51:25;;;;;;;23.70;13.95;;;;;;;;;;5050911;28;20064;-56
2024/02/28 01:53:54;;;;;;;23.60;14.60;;;;;;;;;;5051131;28;20562;-56
2024/02/28 01:56:23;;;;;;;25.58;14.60;;;;;;;;;;5051008;28;20466;-57
2024/02/28 01:58:51;;;;;;;26.13;15.63;;;;;;;;;;5043481;28;20048;-56
2024/02/28 02:01:18;;;;;;;22.90;15.43;;;;;;;;;;5050644;28;20489;-54
2024/02/28 02:03:46;;;;;;;21.85;14.25;;;;;;;;;;5050836;28;20464;-57
2024/02/28 02:06:13;;;;;;;22.80;13.88;;;;;;;;;;5050683;28;20084;-58
2024/02/28 02:08:41;;;;;;;22.83;14.93;;;;;;;;;;5050414;28;20076;-53
2024/02/28 02:11:08;;;;;;;23.55;14.55;;;;;;;;;;5050942;28;20049;-52
2024/02/28 02:13:35;;;;;;;26.75;15.05;;;;;;;;;;5050329;28;20077;-51
2024/02/28 02:16:02;;;;;;;22.85;14.70;;;;;;;;;;5052141;28;20563;-58
2024/02/28 02:18:29;;;;;;;23.98;14.25;;;;;;;;;;5054466;28;20134;-52
2024/02/28 02:21:03;;;;;;;23.17;14.98;;;;;;;;;;5053206;28;20049;-54
2024/02/28 02:23:31;;;;;;;25.08;15.35;;;;;;;;;;5053688;28;20045;-55
2024/02/28 02:25:58;;;;;;;24.27;14.73;;;;;;;;;;5053616;28;20453;-52
2024/02/28 02:28:25;;;;;;;27.42;15.48;;;;;;;;;;5053691;28;20056;-55
2024/02/28 02:30:52;;;;;;;22.77;14.73;;;;;;;;;;5048345;28;20136;-51
2024/02/28 02:33:18;;;;;;;25.67;14.70;;;;;;;;;;5053431;28;20076;-54
2024/02/28 02:35:45;;;;;;;23.58;14.50;;;;;;;;;;5050222;28;20087;-55
2024/02/28 02:38:12;;;;;;;24.58;15.10;;;;;;;;;;5053554;28;20106;-51
2024/02/28 02:40:40;;;;;;;24.23;14.45;;;;;;;;;;5052001;28;20081;-56
2024/02/28 02:43:06;;;;;;;24.88;14.80;;;;;;;;;;5053470;28;20080;-53
2024/02/28 02:45:33;;;;;;;27.60;15.70;;;;;;;;;;5053080;28;20076;-56
2024/02/28 02:48:00;;;;;;;25.58;15.65;;;;;;;;;;5053713;28;20080;-52
2024/02/28 02:50:27;;;;;;;21.90;14.25;;;;;;;;;;5053524;28;20460;-54
2024/02/28 02:52:53;;;;;;;26.13;15.95;;;;;;;;;;5044495;28;20076;-53
2024/02/28 02:55:20;;;;;;;26.20;16.02;;;;;;;;;;5049435;28;20116;-53
2024/02/28 02:57:48;;;;;;;27.15;15.88;;;;;;;;;;5053229;28;20052;-55
2024/02/28 03:00:15;;;;;;;26.67;15.10;;;;;;;;;;5051572;28;20506;-50
2024/02/28 03:02:42;;;;;;;25.83;15.40;;;;;;;;;;5050207;28;20084;-54
2024/02/28 03:05:09;;;;;;;26.52;14.75;;;;;;;;;;5051933;28;20076;-52
2024/02/28 03:07:36;;;;;;;24.25;14.77;;;;;;;;;;5052885;28;20057;-55
2024/02/28 03:10:03;;;;;;;25.77;15.10;;;;;;;;;;5053138;28;20084;-50
2024/02/28 03:12:29;;;;;;;28.25;16.67;;;;;;;;;;5045316;28;20132;-53
2024/02/28 03:14:58;;;;;;;26.55;16.30;;;;;;;;;;5052311;28;20535;-50
2024/02/28 03:17:25;;;;;;;26.48;15.38;;;;;;;;;;5052657;28;20073;-55
2024/02/28 03:19:51;;;;;;;24.77;15.23;;;;;;;;;;5052896;28;20527;-55
2024/02/28 03:22:18;;;;;;;28.73;15.93;;;;;;;;;;5049451;28;20075;-51
2024/02/28 03:24:45;;;;;;;27.15;15.25;;;;;;;;;;5047858;28;20108;-54
2024/02/28 03:27:11;;;;;;;28.52;16.40;;;;;;;;;;5052076;28;20319;-52
2024/02/28 03:29:38;;;;;;;26.23;14.98;;;;;;;;;;5052116;28;20149;-53
2024/02/28 03:32:07;;;;;;;26.08;15.82;;;;;;;;;;5052548;28;20084;-51
2024/02/28 03:34:34;;;;;;;24.70;15.35;;;;;;;;;;5051296;28;20041;-51
2024/02/28 03:37:01;;;;;;;28.08;15.00;;;;;;;;;;5052687;28;20500;-52
2024/02/28 03:39:27;;;;;;;25.35;14.50;;;;;;;;;;5052460;28;20079;-52
2024/02/28 03:41:54;;;;;;;25.35;14.52;;;;;;;;;;5052165;28;20429;-50
2024/02/28 03:44:22;;;;;;;30.00;16.65;;;;;;;;;;5047651;28;20083;-53
2024/02/28 03:46:48;;;;;;;28.15;16.00;;;;;;;;;;5044466;28;20144;-52
2024/02/28 03:49:16;;;;;;;23.88;14.57;;;;;;;;;;5052200;28;20132;-54
2024/02/28 03:51:43;;;;;;;30.50;16.48;;;;;;;;;;5051969;28;20085;-53
2024/02/28 03:54:10;;;;;;;25.58;15.02;;;;;;;;;;5050986;28;20501;-50
2024/02/28 03:56:37;;;;;;;29.00;15.65;;;;;;;;;;5050231;28;20183;-55
2024/02/28 03:59:04;;;;;;;26.90;15.70;;;;;;;;;;5052122;28;20076;-52
2024/02/28 04:01:30;;;;;;;27.17;15.38;;;;;;;;;;5051819;28;20052;-54
2024/02/28 04:03:57;;;;;;;27.80;14.57;;;;;;;;;;5049128;28;20769;-54
2024/02/28 04:06:26;;;;;;;29.08;16.25;;;;;;;;;;5048712;28;20049;-50
2024/02/28 04:08:52;;;;;;;28.77;16.08;;;;;;;;;;5052114;28;20152;-50
2024/02/28 04:11:20;;;;;;;28.52;15.88;;;;;;;;;;5051920;28;20124;-54
2024/02/28 04:13:46;;;;;;;26.27;15.88;;;;;;;;;;5051007;28;20076;-56
2024/02/28 04:16:13;;;;;;;27.80;15.30;;;;;;;;;;5049883;28;20496;-52
2024/02/28 04:18:40;;;;;;;29.38;17.38;;;;;;;;;;5051808;28;20511;-52
2024/02/28 04:21:07;;;;;;;29.65;16.35;;;;;;;;;;5051690;28;20081;-52
2024/02/28 04:23:35;;;;;;;25.00;15.38;;;;;;;;;;5043780;28;20077;-52
2024/02/28 04:26:03;;;;;;;29.30;16.40;;;;;;;;;;5051673;28;20081;-53
2024/02/28 04:28:30;;;;;;;28.75;17.05;;;;;;;;;;5051457;28;20060;-54
2024/02/28 04:30:56;;;;;;;29.35;15.70;;;;;;;;;;5051650;28;20479;-52
2024/02/28 04:33:23;;;;;;;25.35;15.25;;;;;;;;;;5049713;28;20138;-54
2024/02/28 04:35:50;;;;;;;27.88;15.80;;;;;;;;;;5051191;28;20045;-55
2024/02/28 04:38:17;;;;;;;29.10;15.55;;;;;;;;;;5050780;28;20499;-54
2024/02/28 04:40:45;;;;;;;29.40;16.83;;;;;;;;;;5051124;28;20049;-55
2024/02/28 04:43:12;;;;;;;24.77;15.52;;;;;;;;;;5051178;28;20558;-54
2024/02/28 04:45:38;;;;;;;29.02;17.17;;;;;;;;;;5050585;28;20434;-52
2024/02/28 04:48:06;;;;;;;25.77;15.80;;;;;;;;;;5051429;28;20080;-55
2024/02/28 04:50:33;;;;;;;26.98;16.33;;;;;;;;;;5051479;28;20084;-52
2024/02/28 04:53:00;;;;;;;28.48;16.42;;;;;;;;;;5051349;28;20077;-51
2024/02/28 04:55:26;;;;;;;30.00;16.20;;;;;;;;;;5045533;28;20080;-53
2024/02/28 04:57:55;;;;;;;29.13;16.50;;;;;;;;;;5051204;28;20578;-52
2024/02/28 05:00:21;;;;;;;30.52;16.35;;;;;;;;;;5050918;28;20048;-53
2024/02/28 05:02:48;;;;;;;30.25;17.45;;;;;;;;;;5050740;28;20056;-53
2024/02/28 05:05:15;;;;;;;30.38;17.63;;;;;;;;;;5047176;28;20091;-55
2024/02/28 05:07:41;;;;;;;29.75;16.08;;;;;;;;;;5050986;28;20473;-53
2024/02/28 05:10:09;;;;;;;32.58;17.23;;;;;;;;;;5050789;28;20072;-51
2024/02/28 05:12:35;;;;;;;31.65;18.35;;;;;;;;;;5050782;28;20076;-52
2024/02/28 05:15:06;;;;;;;29.40;16.73;;;;;;;;;;5046350;28;20164;-54
2024/02/28 05:17:33;;;;;;;29.80;16.63;;;;;;;;;;5050916;28;20485;-52
2024/02/28 05:19:59;;;;;;;29.20;17.05;;;;;;;;;;5050915;28;20118;-50
2024/02/28 05:22:26;;;;;;;29.90;15.63;;;;;;;;;;5050587;28;20129;-52
2024/02/28 05:24:53;;;;;;;27.35;15.77;;;;;;;;;;5049425;28;20124;-55
2024/02/28 05:27:20;;;;;;;28.55;15.82;;;;;;;;;;5050745;28;20048;-52
2024/02/28 05:29:46;;;;;;;27.23;16.00;;;;;;;;;;5051194;28;20091;-51
2024/02/28 05:32:14;;;;;;;28.67;16.30;;;;;;;;;;5050891;28;20089;-54
2024/02/28 05:34:42;;;;;;;33.63;17.90;;;;;;;;;;5044416;28;20048;-52
2024/02/28 05:37:09;;;;;;;29.25;16.50;;;;;;;;;;5045267;28;20131;-51
2024/02/28 05:39:35;;;;;;;27.65;16.65;;;;;;;;;;5050657;28;20467;-54
2024/02/28 05:42:02;;;;;;;30.35;16.60;;;;;;;;;;5050507;28;20544;-54
2024/02/28 05:44:29;;;;;;;31.77;18.67;;;;;;;;;;5050337;28;20104;-53
2024/02/28 05:46:56;;;;;;;31.38;17.80;;;;;;;;;;5048753;28;20133;-55
2024/02/28 05:49:24;;;;;;;33.75;18.33;;;;;;;;;;5050527;28;20558;-54
2024/02/28 05:51:51;;;;;;;29.90;16.88;;;;;;;;;;5052062;28;20085;-55
2024/02/28 05:54:18;;;;;;;28.13;16.17;;;;;;;;;;5050995;28;20076;-51
2024/02/28 05:56:45;;;;;;;32.83;17.83;;;;;;;;;;5048186;28;20099;-54
2024/02/28 05:59:12;;;;;;;34.17;17.90;;;;;;;;;;5054323;28;20100;-53
2024/02/28 06:01:40;;;;;;;28.85;18.17;;;;;;;;;;5054337;28;20090;-55
2024/02/28 06:04:06;;;;;;;27.65;17.42;;;;;;;;;;5052995;28;20056;-51
2024/02/28 06:06:34;;;;;;;32.05;16.83;;;;;;;;;;5049839;28;20132;-52
2024/02/28 06:09:01;;;;;;;29.05;17.75;;;;;;;;;;5054386;28;20091;-55
2024/02/28 06:11:28;;;;;;;31.42;17.15;;;;;;;;;;5054317;28;20056;-53
2024/02/28 06:13:55;;;;;;;33.38;18.30;;;;;;;;;;5053745;28;20080;-56
2024/02/28 06:16:21;;;;;;;30.83;16.27;;;;;;;;;;5054501;28;20571;-56
2024/02/28 06:18:48;;;;;;;34.78;18.73;;;;;;;;;;5053705;28;20073;-54
2024/02/28 06:21:15;;;;;;;31.45;17.45;;;;;;;;;;5054517;28;20081;-53
2024/02/28 06:23:43;;;;;;;32.33;17.85;;;;;;;;;;5053430;28;20080;-56
2024/02/28 06:26:16;;;;;;;29.63;16.98;;;;;;;;;;5054068;28;20076;-56
2024/02/28 06:28:45;;;;;;;30.63;17.35;;;;;;;;;;5053251;28;20075;-53
2024/02/28 06:31:13;;;;;;;33.05;18.10;;;;;;;;;;5053801;28;20056;-51
2024/02/28 06:33:40;;;;;;;34.22;18.48;;;;;;;;;;5053384;28;20051;-52
2024/02/28 06:36:07;;;;;;;34.35;18.10;;;;;;;;;;5053761;28;20077;-56
2024/02/28 06:38:34;;;;;;;33.53;17.55;;;;;;;;;;5053818;28;20073;-52
2024/02/28 06:41:02;;;;;;;28.98;16.20;;;;;;;;;;5053920;28;20060;-51
2024/02/28 06:43:29;;;;;;;33.75;17.30;;;;;;;;;;5053691;28;20044;-52
2024/02/28 06:45:56;;;;;;;29.38;16.25;;;;;;;;;;5053291;28;20088;-52
2024/02/28 06:48:23;;;;;;;31.70;18.48;;;;;;;;;;5048975;28;20073;-50
2024/02/28 06:50:50;;;;;;;36.75;19.50;;;;;;;;;;5054020;28;20045;-55
2024/02/28 06:53:17;;;;;;;34.60;16.92;;;;;;;;;;5053562;28;20084;-55
2024/02/28 06:55:45;;;;;;;32.75;18.25;;;;;;;;;;5052193;28;20056;-56
2024/02/28 06:58:13;;;;;;;33.22;17.40;;;;;;;;;;5053571;28;20041;-54
2024/02/28 07:00:40;;;;;;;34.75;17.30;;;;;;;;;;5050019;28;20041;-52
2024/02/28 07:03:06;;;;;;;36.20;18.63;;;;;;;;;;5052812;28;20045;-54
2024/02/28 07:05:33;;;;;;;39.05;19.50;;;;;;;;;;5049568;28;20045;-52
2024/02/28 07:08:00;;;;;;;36.05;17.48;;;;;;;;;;5053050;28;20163;-55
2024/02/28 07:10:27;;;;;;;39.83;18.58;;;;;;;;;;5046056;28;20120;-55
2024/02/28 07:12:54;;;;;;;36.63;19.17;;;;;;;;;;5053152;28;20095;-53
2024/02/28 07:15:22;;;;;;;39.05;19.58;;;;;;;;;;5052973;28;20128;-55
2024/02/28 07:17:49;;;;;;;40.17;19.60;;;;;;;;;;5053420;28;20099;-57
2024/02/28 07:20:14;;;;;;;38.10;19.15;;;;;;;;;;5050851;28;20169;-55
2024/02/28 07:22:43;;;;;;;37.13;19.98;;;;;;;;;;5052259;28;20124;-53
2024/02/28 07:25:10;;;;;;;38.45;18.85;;;;;;;;;;5052755;28;20143;-53
2024/02/28 07:27:37;;;;;;;34.95;19.10;;;;;;;;;;5052764;28;20472;-51
2024/02/28 07:30:04;;;;;;;37.63;19.40;;;;;;;;;;5053197;28;20095;-53
2024/02/28 07:32:34;;;;;;;35.28;18.23;;;;;;;;;;5055010;28;20091;-52
2024/02/28 07:35:01;;;;;;;34.05;17.42;;;;;;;;;;5053514;28;20077;-53
2024/02/28 07:37:28;;;;;;;33.70;18.13;;;;;;;;;;5058817;28;20048;-56
2024/02/28 07:39:55;;;;;;;36.58;18.58;;;;;;;;;;5050086;28;20064;-55
2024/02/28 07:42:21;;;;;;;33.88;18.35;;;;;;;;;;5057326;28;20100;-52
2024/02/28 07:44:49;;;;;;;41.90;19.95;;;;;;;;;;5052652;28;20124;-56
2024/02/28 07:47:15;;;;;;;37.05;18.45;;;;;;;;;;5055913;28;20049;-54
2024/02/28 07:49:44;;;;;;;34.78;18.73;;;;;;;;;;5052382;28;20721;-54
2024/02/28 07:52:11;;;;;;;39.35;18.80;;;;;;;;;;5051416;28;20088;-55
2024/02/28 07:54:37;;;;;;;41.72;20.30;;;;;;;;;;5051940;28;20548;-52
2024/02/28 07:57:04;;;;;;;39.58;20.85;;;;;;;;;;5051244;28;20072;-51
2024/02/28 07:59:31;;;;;;;39.28;19.15;;;;;;;;;;5051690;28;20432;-53
2024/02/28 08:01:58;;;;;;;37.95;19.00;;;;;;;;;;5052658;28;20548;-56
2024/02/28 08:04:24;;;;;;;40.40;20.25;;;;;;;;;;5052055;28;20040;-56
2024/02/28 08:06:53;;;;;;;37.42;20.20;;;;;;;;;;5054272;28;20049;-52
2024/02/28 08:09:19;;;;;;;41.30;19.90;;;;;;;;;;5057730;28;20071;-53
2024/02/28 08:11:48;;;;;;;38.67;19.27;;;;;;;;;;5063513;28;20048;-54
2024/02/28 08:14:15;;;;;;;37.80;19.17;;;;;;;;;;5050851;28;20088;-53
2024/02/28 08:16:41;;;;;;;35.83;20.85;;;;;;;;;;5056345;28;20416;-56
2024/02/28 08:19:08;;;;;;;33.72;18.70;;;;;;;;;;5057808;28;20511;-55
2024/02/28 08:21:35;;;;;;;39.35;19.92;;;;;;;;;;5051970;28;20132;-54
2024/02/28 08:24:04;;;;;;;38.08;20.27;;;;;;;;;;5056430;28;20080;-55
2024/02/28 08:26:31;;;;;;;36.72;20.05;;;;;;;;;;5051167;28;20906;-55
2024/02/28 08:28:58;;;;;;;35.55;19.38;;;;;;;;;;5053935;28;20087;-54
2024/02/28 08:31:24;;;;;;;39.55;20.55;;;;;;;;;;5051604;28;20077;-56
2024/02/28 08:33:52;;;;;;;42.85;20.55;;;;;;;;;;5051292;28;20535;-53
2024/02/28 08:36:18;;;;;;;40.08;20.75;;;;;;;;;;5051090;28;20124;-62
2024/02/28 08:38:45;;;;;;;40.58;20.55;;;;;;;;;;5050606;28;20449;-64
2024/02/28 08:41:13;;;;;;;46.17;21.95;;;;;;;;;;5051324;28;20069;-61
2024/02/28 08:43:40;;;;;;;42.67;21.85;;;;;;;;;;5054189;28;20124;-64
2024/02/28 08:46:07;;;;;;;37.88;19.77;;;;;;;;;;5051886;28;20048;-53
2024/02/28 08:48:34;;;;;;;38.28;20.95;;;;;;;;;;5054711;28;20044;-55
2024/02/28 08:51:01;;;;;;;39.08;20.77;;;;;;;;;;5050203;28;20072;-56
2024/02/28 08:53:28;;;;;;;40.75;20.40;;;;;;;;;;5056021;28;20124;-55
2024/02/28 08:55:54;;;;;;;35.70;19.92;;;;;;;;;;5049784;28;20048;-53
2024/02/28 08:58:22;;;;;;;37.38;20.13;;;;;;;;;;5052619;28;20095;-54
2024/02/28 09:00:49;;;;;;;38.85;19.70;;;;;;;;;;5055422;28;20080;-57
2024/02/28 09:03:16;;;;;;;40.10;20.67;;;;;;;;;;5056195;28;20103;-57
2024/02/28 09:05:42;;;;;;;38.78;19.92;;;;;;;;;;5053536;28;20150;-52
2024/02/28 09:08:09;;;;;;;38.08;20.55;;;;;;;;;;5047722;28;20076;-55
2024/02/28 09:10:36;;;;;;;38.72;20.55;;;;;;;;;;5050156;28;20570;-57
2024/02/28 09:13:03;;;;;;;37.85;20.35;;;;;;;;;;5051167;28;20120;-57
2024/02/28 09:15:31;;;;;;;39.72;20.17;;;;;;;;;;5047382;28;20076;-56
2024/02/28 09:17:58;;;;;;;39.67;21.58;;;;;;;;;;5055022;28;20052;-55
2024/02/28 09:20:35;;;;;;;41.30;20.55;;;;;;;;;;5057117;28;20064;-56
2024/02/28 09:23:02;;;;;;;40.97;20.60;;;;;;;;;;5045897;28;20489;-56
2024/02/28 09:25:30;;;;;;;38.75;20.35;;;;;;;;;;5050198;28;20048;-54
2024/02/28 09:27:57;;;;;;;37.20;19.08;;;;;;;;;;5052898;28;20106;-53
2024/02/28 09:30:23;;;;;;;38.63;20.10;;;;;;;;;;5047715;28;20095;-55
2024/02/28 09:32:52;;;;;;;38.80;18.55;;;;;;;;;;5057260;28;20128;-55
2024/02/28 09:35:18;;;;;;;36.28;19.27;;;;;;;;;;5062482;28;20080;-56
2024/02/28 09:37:45;;;;;;;35.67;19.13;;;;;;;;;;5052734;28;20127;-55
2024/02/28 09:40:13;;;;;;;37.90;19.08;;;;;;;;;;5048574;28;20080;-54
2024/02/28 09:42:40;;;;;;;33.92;18.23;;;;;;;;;;5052494;28;20084;-52
2024/02/28 09:45:10;;;;;;;38.55;18.85;;;;;;;;;;5054733;28;20128;-57
2024/02/28 09:47:37;;;;;;;37.15;18.98;;;;;;;;;;5058839;28;20599;-55
2024/02/28 09:50:07;;;;;;;34.25;18.33;;;;;;;;;;5057026;28;20059;-55
2024/02/28 09:52:35;;;;;;;36.72;19.10;;;;;;;;;;5057172;28;20071;-55
2024/02/28 09:55:01;;;;;;;38.58;19.58;;;;;;;;;;5060165;28;20048;-56
2024/02/28 09:57:29;;;;;;;37.17;19.45;;;;;;;;;;5051517;28;20150;-55
2024/02/28 09:59:58;;;;;;;33.47;17.75;;;;;;;;;;5057546;28;20045;-55
2024/02/28 10:02:27;;;;;;;35.88;19.00;;;;;;;;;;5050746;28;20509;-52
2024/02/28 10:04:54;;;;;;;36.97;20.10;;;;;;;;;;5057009;28;20062;-56
2024/02/28 10:07:22;;;;;;;39.63;19.23;;;;;;;;;;5053664;28;20128;-53
2024/02/28 10:09:48;;;;;;;33.80;18.60;;;;;;;;;;5047686;28;20080;-55
2024/02/28 10:12:15;;;;;;;35.45;17.98;;;;;;;;;;5049187;28;20527;-58
2024/02/28 10:14:42;;;;;;;37.15;18.83;;;;;;;;;;5052669;28;20133;-56
2024/02/28 10:17:09;;;;;;;37.30;19.42;;;;;;;;;;5057028;28;20076;-52
2024/02/28 10:19:36;;;;;;;34.72;18.75;;;;;;;;;;5053231;28;20083;-57
2024/02/28 10:22:02;;;;;;;33.15;18.42;;;;;;;;;;5055083;28;20098;-55
2024/02/28 10:24:31;;;;;;;35.50;20.63;;;;;;;;;;5054999;28;20064;-55
2024/02/28 10:27:01;;;;;;;37.67;18.65;;;;;;;;;;5055250;28;20144;-59
2024/02/28 10:29:29;;;;;;;35.85;18.55;;;;;;;;;;5059312;28;20048;-54
2024/02/28 10:31:56;;;;;;;35.05;19.92;;;;;;;;;;5052794;28;20045;-57
2024/02/28 10:34:23;;;;;;;35.10;19.67;;;;;;;;;;5049532;28;20061;-56
2024/02/28 10:36:50;;;;;;;35.35;17.92;;;;;;;;;;5049792;28;20049;-54
2024/02/28 10:39:17;;;;;;;35.15;19.05;;;;;;;;;;5053318;28;20045;-56
2024/02/28 10:41:49;;;;;;;40.58;21.50;;;;;;;;;;5052580;28;20802;-56
2024/02/28 10:44:17;;;;;;;36.75;19.17;;;;;;;;;;5053747;28;20120;-55
2024/02/28 10:46:47;;;;;;;36.15;20.67;;;;;;;;;;5055816;28;20528;-54
2024/02/28 10:49:14;;;;;;;31.45;18.90;;;;;;;;;;5054662;28;20423;-55
2024/02/28 10:51:44;;;;;;;36.08;20.25;;;;;;;;;;5054320;28;20099;-57
2024/02/28 10:54:13;;;;;;;35.17;19.30;;;;;;;;;;5050842;28;20056;-56
2024/02/28 10:56:40;;;;;;;35.53;18.83;;;;;;;;;;5052149;28;20132;-54
2024/02/28 10:59:10;;;;;;;36.22;19.23;;;;;;;;;;5056566;28;20535;-56
2024/02/28 11:01:37;;;;;;;38.95;20.50;;;;;;;;;;5055918;28;20120;-56
2024/02/28 11:04:05;;;;;;;33.03;18.88;;;;;;;;;;5050820;28;20051;-54
2024/02/28 11:06:32;;;;;;;33.45;17.77;;;;;;;;;;5049133;28;20095;-55
2024/02/28 11:09:00;;;;;;;34.40;19.30;;;;;;;;;;5059018;28;20053;-55
2024/02/28 11:11:31;;;;;;;35.17;19.95;;;;;;;;;;5054487;28;20124;-54
2024/02/28 11:14:00;;;;;;;33.42;18.48;;;;;;;;;;5057041;28;20179;-53
2024/02/28 11:16:30;;;;;;;34.50;18.83;;;;;;;;;;5055416;28;20041;-55
2024/02/28 11:18:57;;;;;;;35.13;18.48;;;;;;;;;;5048214;28;20560;-52
2024/02/28 11:21:27;;;;;;;36.47;18.88;;;;;;;;;;5049865;28;20161;-56
2024/02/28 11:23:58;;;;;;;35.85;18.83;;;;;;;;;;5047456;28;20045;-52
2024/02/28 11:26:27;;;;;;;34.97;19.50;;;;;;;;;;5044720;28;20049;-55
2024/02/28 11:28:54;;;;;;;34.67;17.63;;;;;;;;;;5047927;28;20740;-57
2024/02/28 11:31:21;;;;;;;35.85;19.35;;;;;;;;;;5050491;28;20095;-57
2024/02/28 11:33:50;;;;;;;33.33;18.58;;;;;;;;;;5049798;28;20084;-56
2024/02/28 11:36:17;;;;;;;37.85;20.42;;;;;;;;;;5050761;28;20041;-57
2024/02/28 11:38:46;;;;;;;39.55;19.55;;;;;;;;;;5050603;28;20061;-57
2024/02/28 11:41:12;;;;;;;35.10;18.67;;;;;;;;;;5050292;28;20049;-54
2024/02/28 11:43:39;;;;;;;36.10;18.25;;;;;;;;;;5049663;28;20110;-56
2024/02/28 11:46:09;;;;;;;33.92;18.05;;;;;;;;;;5053571;28;20045;-56
2024/02/28 11:48:36;;;;;;;36.38;20.13;;;;;;;;;;5054987;28;20090;-57
2024/02/28 11:51:04;;;;;;;39.17;21.48;;;;;;;;;;5056739;28;20087;-56
2024/02/28 11:53:31;;;;;;;34.28;17.95;;;;;;;;;;5055847;28;20059;-57
2024/02/28 11:55:57;;;;;;;38.92;18.77;;;;;;;;;;5053660;28;20145;-54
2024/02/28 11:58:24;;;;;;;34.15;19.30;;;;;;;;;;5056376;28;20072;-57
2024/02/28 12:00:52;;;;;;;36.38;20.52;;;;;;;;;;5053343;28;20076;-52
2024/02/28 12:03:23;;;;;;;37.92;19.33;;;;;;;;;;5060343;28;20512;-54
2024/02/28 12:05:50;;;;;;;41.97;21.58;;;;;;;;;;5047375;28;21076;-54
2024/02/28 12:08:18;;;;;;;35.67;20.63;;;;;;;;;;5051381;28;20049;-56
2024/02/28 12:10:45;;;;;;;34.90;19.40;;;;;;;;;;5051870;28;20046;-56
2024/02/28 12:13:12;;;;;;;35.95;20.95;;;;;;;;;;5050170;28;20103;-55
2024/02/28 12:15:42;;;;;;;37.08;20.88;;;;;;;;;;5049101;28;20144;-55
2024/02/28 12:18:10;;;;;;;35.08;19.38;;;;;;;;;;5050265;28;20048;-53
2024/02/28 12:20:38;;;;;;;34.22;19.83;;;;;;;;;;5047559;28;20496;-53
2024/02/28 12:23:05;;;;;;;38.15;20.33;;;;;;;;;;5056398;28;20496;-55
2024/02/28 12:25:34;;;;;;;38.88;20.05;;;;;;;;;;5051972;28;20106;-51
2024/02/28 12:28:01;;;;;;;38.28;20.23;;;;;;;;;;5047931;28;20338;-56
2024/02/28 12:30:28;;;;;;;34.42;20.50;;;;;;;;;;5050282;28;20076;-53
2024/02/28 12:32:55;;;;;;;35.67;20.00;;;;;;;;;;5049555;28;20131;-57
2024/02/28 12:35:22;;;;;;;36.35;19.95;;;;;;;;;;5051824;28;20128;-52
2024/02/28 12:37:48;;;;;;;33.70;19.13;;;;;;;;;;5052573;28;20534;-55
2024/02/28 12:40:17;;;;;;;35.38;20.70;;;;;;;;;;5052707;28;20037;-58
2024/02/28 12:42:45;;;;;;;32.83;19.08;;;;;;;;;;5054985;28;20080;-55
2024/02/28 12:45:12;;;;;;;35.00;20.30;;;;;;;;;;5049229;28;20126;-56
2024/02/28 12:47:40;;;;;;;35.08;19.67;;;;;;;;;;5049675;28;20862;-56
2024/02/28 12:50:08;;;;;;;34.95;19.90;;;;;;;;;;5049774;28;20102;-54
2024/02/28 12:52:35;;;;;;;35.65;19.83;;;;;;;;;;5049587;28;20056;-54
2024/02/28 12:55:02;;;;;;;35.90;18.95;;;;;;;;;;5049305;28;20080;-56
2024/02/28 12:57:29;;;;;;;32.63;18.63;;;;;;;;;;5049326;28;20077;-54
2024/02/28 12:59:57;;;;;;;33.83;18.92;;;;;;;;;;5049181;28;20483;-54
2024/02/28 13:02:24;;;;;;;38.50;20.92;;;;;;;;;;5049750;28;20055;-56
2024/02/28 13:04:50;;;;;;;33.97;18.83;;;;;;;;;;5049411;28;20135;-55
2024/02/28 13:07:19;;;;;;;31.42;18.05;;;;;;;;;;5049698;28;20114;-58
2024/02/28 13:09:46;;;;;;;34.45;19.55;;;;;;;;;;5049023;28;20132;-53
2024/02/28 13:12:13;;;;;;;35.35;19.60;;;;;;;;;;5049714;28;20041;-53
2024/02/28 13:14:39;;;;;;;35.97;19.15;;;;;;;;;;5049016;28;20076;-53
2024/02/28 13:17:07;;;;;;;34.50;18.80;;;;;;;;;;5050750;28;20076;-55
2024/02/28 13:19:34;;;;;;;35.13;19.05;;;;;;;;;;5049251;28;20111;-53
2024/02/28 13:22:01;;;;;;;33.55;18.63;;;;;;;;;;5049322;28;20068;-57
2024/02/28 13:24:27;;;;;;;39.40;21.20;;;;;;;;;;5048938;28;20122;-57
2024/02/28 13:26:54;;;;;;;54.38;25.05;;;;;;;;;;5049544;28;20049;-56
2024/02/28 13:29:21;;;;;;;47.80;23.23;;;;;;;;;;5051940;28;20519;-63
2024/02/28 13:31:48;;;;;;;38.92;19.70;;;;;;;;;;5050214;28;20653;-65
2024/02/28 13:34:16;;;;;;;35.05;19.05;;;;;;;;;;5049767;28;20077;-64
2024/02/28 13:36:43;;;;;;;38.72;22.27;;;;;;;;;;5048323;28;20087;-57
2024/02/28 13:39:11;;;;;;;35.30;19.55;;;;;;;;;;5052822;28;20361;-57
2024/02/28 13:41:38;;;;;;;33.00;18.85;;;;;;;;;;5051124;28;20049;-55
2024/02/28 13:44:05;;;;;;;32.33;18.27;;;;;;;;;;5054755;28;20588;-54
2024/02/28 13:46:32;;;;;;;35.65;17.30;;;;;;;;;;5053836;28;20141;-54
2024/02/28 13:48:59;;;;;;;34.15;18.48;;;;;;;;;;5049963;28;20497;-57
2024/02/28 13:51:27;;;;;;;34.75;18.42;;;;;;;;;;5048891;28;20055;-57
2024/02/28 13:53:54;;;;;;;34.83;19.00;;;;;;;;;;5048373;28;20468;-56
2024/02/28 13:56:21;;;;;;;34.22;18.55;;;;;;;;;;5046735;28;20080;-56
2024/02/28 13:58:47;;;;;;;36.08;18.33;;;;;;;;;;5048906;28;20122;-52
2024/02/28 14:01:14;;;;;;;34.00;19.27;;;;;;;;;;5048643;28;20041;-56
2024/02/28 14:03:41;;;;;;;35.33;17.15;;;;;;;;;;5048795;28;20054;-58
2024/02/28 14:06:08;;;;;;;35.58;18.83;;;;;;;;;;5048998;28;20084;-56
2024/02/28 14:08:36;;;;;;;34.35;18.40;;;;;;;;;;5050811;28;20124;-53
2024/02/28 14:11:03;;;;;;;32.42;17.80;;;;;;;;;;5049380;28;20532;-58
2024/02/28 14:13:29;;;;;;;33.83;17.13;;;;;;;;;;5052448;28;20049;-57
2024/02/28 14:15:56;;;;;;;30.08;17.00;;;;;;;;;;5052369;28;20072;-57